createdAt,value
2019-04-11T00:01:19.672Z,4.20
2019-04-11T00:03:51.459Z,4.20
2019-04-11T00:06:23.525Z,4.20
2019-04-11T00:08:56.390Z,4.20
2019-04-11T00:11:28.234Z,4.20
2019-04-11T00:13:59.893Z,4.20
2019-04-11T00:16:33.126Z,4.20
2019-04-11T00:19:05.242Z,4.10
2019-04-11T00:21:37.892Z,4.10
2019-04-11T00:24:10.417Z,4.10
2019-04-11T00:26:41.859Z,4.10
2019-04-11T00:29:14.633Z,4.00
2019-04-11T00:31:46.968Z,4.00
2019-04-11T00:34:21.105Z,3.90
2019-04-11T00:36:52.702Z,3.90
2019-04-11T00:39:24.049Z,3.90
2019-04-11T00:41:56.430Z,3.80
2019-04-11T00:44:27.929Z,3.80
2019-04-11T00:47:00.475Z,3.70
2019-04-11T00:49:32.586Z,3.70
2019-04-11T00:52:04.578Z,3.70
2019-04-11T00:54:35.957Z,3.70
2019-04-11T00:57:08.413Z,3.70
2019-04-11T00:59:40.626Z,3.70
2019-04-11T01:02:15.615Z,3.70
2019-04-11T01:04:47.235Z,3.60
2019-04-11T01:07:18.592Z,3.50
2019-04-11T01:09:50.695Z,3.60
2019-04-11T01:12:23.251Z,3.40
2019-04-11T01:14:55.282Z,3.40
2019-04-11T01:17:27.444Z,3.40
2019-04-11T01:20:00.087Z,3.40
2019-04-11T01:22:31.995Z,3.40
2019-04-11T01:25:04.266Z,3.30
2019-04-11T01:27:36.244Z,3.20
2019-04-11T01:30:13.698Z,3.20
2019-04-11T01:32:44.944Z,3.30
2019-04-11T01:35:17.279Z,3.20
2019-04-11T01:37:48.654Z,3.20
2019-04-11T01:40:21.280Z,3.20
2019-04-11T01:42:52.614Z,3.20
2019-04-11T01:45:25.546Z,3.10
2019-04-11T01:48:03.648Z,3.10
2019-04-11T01:50:36.927Z,3.10
2019-04-11T01:53:08.904Z,3.10
2019-04-11T01:55:40.841Z,3.10
2019-04-11T01:58:12.533Z,3.10
2019-04-11T02:01:15.188Z,3.10
2019-04-11T02:04:02.060Z,3.10
2019-04-11T02:06:34.116Z,3.10
2019-04-11T02:09:09.731Z,3.10
2019-04-11T02:11:41.528Z,3.10
2019-04-11T02:14:16.471Z,3.00
2019-04-11T02:16:47.455Z,3.00
2019-04-11T02:19:20.312Z,3.00
2019-04-11T02:21:53.765Z,3.00
2019-04-11T02:24:36.203Z,2.90
2019-04-11T02:27:21.110Z,2.90
2019-04-11T02:29:53.030Z,2.80
2019-04-11T02:32:27.036Z,2.80
2019-04-11T02:35:02.436Z,2.70
2019-04-11T02:37:34.308Z,2.70
2019-04-11T02:40:08.118Z,2.70
2019-04-11T02:42:41.267Z,2.70
2019-04-11T02:45:25.116Z,2.70
2019-04-11T02:47:48.449Z,2.70
2019-04-11T02:50:23.400Z,2.70
2019-04-11T02:52:52.877Z,2.70
2019-04-11T02:55:25.260Z,2.60
2019-04-11T02:57:57.646Z,2.50
2019-04-11T03:00:31.023Z,2.50
2019-04-11T03:03:04.116Z,2.50
2019-04-11T03:05:37.481Z,2.40
2019-04-11T03:08:12.156Z,2.30
2019-04-11T03:10:43.017Z,2.40
2019-04-11T03:13:16.752Z,2.40
2019-04-11T03:16:07.334Z,2.40
2019-04-11T03:18:40.935Z,2.30
2019-04-11T03:21:02.875Z,2.40
2019-04-11T03:23:31.069Z,2.40
2019-04-11T03:26:03.346Z,2.30
2019-04-11T03:28:38.316Z,2.20
2019-04-11T03:31:42.165Z,2.20
2019-04-11T03:34:25.262Z,2.20
2019-04-11T03:39:11.531Z,2.30
2019-04-11T03:41:40.025Z,2.30
2019-04-11T03:44:03.551Z,2.40
2019-04-11T03:46:48.272Z,2.40
2019-04-11T03:49:16.572Z,2.40
2019-04-11T03:51:36.509Z,2.30
2019-04-11T03:54:09.854Z,2.30
2019-04-11T03:56:43.304Z,2.30
2019-04-11T03:59:16.762Z,2.30
2019-04-11T04:01:50.753Z,2.20
2019-04-11T04:04:23.856Z,2.20
2019-04-11T04:06:57.859Z,2.20
2019-04-11T04:09:30.653Z,2.10
2019-04-11T04:12:02.934Z,2.10
2019-04-11T04:14:42.832Z,2.10
2019-04-11T04:17:25.348Z,2.10
2019-04-11T04:20:22.569Z,2.00
2019-04-11T04:23:14.439Z,2.00
2019-04-11T04:25:47.295Z,1.90
2019-04-11T04:28:19.204Z,1.90
2019-04-11T04:30:51.934Z,1.80
2019-04-11T04:33:26.659Z,1.80
2019-04-11T04:36:00.153Z,1.80
2019-04-11T04:38:33.781Z,1.80
2019-04-11T04:41:20.043Z,1.80
2019-04-11T04:43:41.409Z,1.80
2019-04-11T04:46:29.771Z,1.80
2019-04-11T04:48:47.884Z,1.70
2019-04-11T04:51:20.753Z,1.70
2019-04-11T04:53:53.096Z,1.70
2019-04-11T04:56:31.076Z,1.80
2019-04-11T04:58:59.867Z,1.90
2019-04-11T05:01:31.690Z,1.90
2019-04-11T05:04:04.772Z,1.90
2019-04-11T05:06:36.484Z,2.00
2019-04-11T05:09:08.721Z,2.00
2019-04-11T05:11:40.270Z,2.10
2019-04-11T05:14:12.653Z,2.00
2019-04-11T05:16:44.283Z,1.90
2019-04-11T05:19:16.981Z,2.00
2019-04-11T05:21:49.817Z,2.00
2019-04-11T05:24:21.333Z,2.00
2019-04-11T05:26:53.039Z,2.10
2019-04-11T05:29:25.007Z,2.10
2019-04-11T05:31:56.767Z,2.10
2019-04-11T05:34:28.941Z,2.20
2019-04-11T05:37:00.418Z,2.30
2019-04-11T05:39:31.945Z,2.40
2019-04-11T05:42:03.579Z,2.40
2019-04-11T05:44:37.435Z,2.50
2019-04-11T05:47:09.023Z,2.50
2019-04-11T05:49:52.700Z,2.50
2019-04-11T05:52:24.139Z,2.50
2019-04-11T05:54:58.721Z,2.70
2019-04-11T05:57:35.297Z,2.80
2019-04-11T06:00:05.557Z,2.80
2019-04-11T06:02:41.456Z,2.90
2019-04-11T06:05:36.033Z,3.00
2019-04-11T06:08:12.548Z,3.10
2019-04-11T06:11:14.490Z,3.20
2019-04-11T06:14:05.764Z,3.30
2019-04-11T06:16:43.597Z,3.40
2019-04-11T06:19:28.698Z,3.40
2019-04-11T06:22:06.648Z,3.50
2019-04-11T06:24:58.664Z,3.60
2019-04-11T06:27:39.038Z,3.60
2019-04-11T06:30:50.728Z,3.80
2019-04-11T06:33:26.755Z,3.90
2019-04-11T06:36:26.499Z,3.90
2019-04-11T06:39:29.468Z,4.00
2019-04-11T06:42:19.899Z,4.20
2019-04-11T06:45:09.643Z,4.30
2019-04-11T06:48:18.729Z,4.30
2019-04-11T06:50:55.613Z,4.40
2019-04-11T06:53:34.186Z,4.50
2019-04-11T06:56:32.802Z,4.60
2019-04-11T06:59:08.010Z,4.80
2019-04-11T07:01:42.629Z,5.00
2019-04-11T07:04:19.766Z,5.10
2019-04-11T07:06:53.724Z,5.30
2019-04-11T07:09:46.914Z,5.50
2019-04-11T07:12:22.732Z,5.50
2019-04-11T07:15:16.564Z,5.60
2019-04-11T07:18:07.472Z,5.60
2019-04-11T07:21:10.622Z,5.60
2019-04-11T07:23:59.898Z,5.60
2019-04-11T07:26:43.821Z,5.70
2019-04-11T07:29:33.558Z,5.80
2019-04-11T07:32:15.982Z,5.90
2019-04-11T07:35:04.892Z,6.00
2019-04-11T07:37:40.779Z,6.10
2019-04-11T07:40:32.839Z,6.30
2019-04-11T07:43:19.115Z,6.40
2019-04-11T07:46:25.547Z,6.40
2019-04-11T07:49:03.757Z,6.50
2019-04-11T07:51:54.376Z,6.70
2019-04-11T07:54:28.082Z,6.70
2019-04-11T07:57:13.287Z,6.90
2019-04-11T08:00:12.798Z,6.80
2019-04-11T08:03:09.967Z,6.80
2019-04-11T08:05:56.598Z,6.70
2019-04-11T08:08:34.994Z,6.80
2019-04-11T08:11:13.629Z,6.90
2019-04-11T08:14:10.497Z,7.00
2019-04-11T08:17:00.037Z,7.00
2019-04-11T08:19:51.261Z,7.00
2019-04-11T08:22:49.618Z,6.90
2019-04-11T08:25:52.045Z,6.80
2019-04-11T08:28:24.840Z,6.90
2019-04-11T08:31:05.450Z,7.20
2019-04-11T08:33:38.306Z,7.20
2019-04-11T08:36:29.564Z,7.20
2019-04-11T08:39:04.877Z,7.40
2019-04-11T08:41:47.598Z,7.50
2019-04-11T08:44:23.801Z,7.80
2019-04-11T08:47:02.930Z,7.90
2019-04-11T08:49:54.326Z,7.70
2019-04-11T08:52:50.323Z,7.80
2019-04-11T08:55:24.814Z,7.90
2019-04-11T08:58:00.905Z,7.90
2019-04-11T09:00:42.849Z,7.80
2019-04-11T09:03:59.298Z,7.90
2019-04-11T09:06:20.902Z,8.00
2019-04-11T09:09:11.162Z,8.10
2019-04-11T09:11:46.980Z,8.30
2019-04-11T09:14:40.002Z,8.50
2019-04-11T09:17:14.367Z,8.70
2019-04-11T09:20:05.347Z,8.70
2019-04-11T09:22:39.867Z,8.80
2019-04-11T09:25:43.445Z,8.90
2019-04-11T09:28:20.002Z,9.00
2019-04-11T09:31:12.199Z,9.00
2019-04-11T09:34:03.859Z,9.10
2019-04-11T09:36:55.435Z,9.30
2019-04-11T09:39:57.997Z,9.40
2019-04-11T09:42:40.159Z,9.20
2019-04-11T09:45:33.334Z,9.40
2019-04-11T09:48:44.156Z,9.50
2019-04-11T09:51:42.256Z,9.30
2019-04-11T09:54:48.514Z,9.50
2019-04-11T09:57:38.056Z,9.40
2019-04-11T10:00:20.716Z,9.50
2019-04-11T10:03:11.324Z,9.60
2019-04-11T10:05:51.538Z,9.60
2019-04-11T10:08:35.264Z,9.70
2019-04-11T10:11:26.109Z,9.60
2019-04-11T10:14:07.347Z,9.80
2019-04-11T10:16:58.184Z,9.80
2019-04-11T10:19:36.066Z,10.00
2019-04-11T10:22:25.120Z,10.10
2019-04-11T10:25:28.837Z,10.00
2019-04-11T10:28:29.702Z,10.00
2019-04-11T10:31:22.196Z,10.40
2019-04-11T10:34:11.254Z,10.50
2019-04-11T10:36:52.183Z,10.50
2019-04-11T10:39:41.859Z,10.60
2019-04-11T10:42:15.694Z,10.30
2019-04-11T10:45:25.049Z,10.70
2019-04-11T10:48:01.216Z,10.50
2019-04-11T10:51:00.399Z,10.60
2019-04-11T10:53:33.297Z,10.60
2019-04-11T10:56:30.646Z,10.70
2019-04-11T10:59:03.581Z,10.80
2019-04-11T11:01:53.088Z,10.60
2019-04-11T11:04:27.619Z,10.60
2019-04-11T11:07:04.358Z,10.40
2019-04-11T11:10:00.839Z,10.70
2019-04-11T11:12:53.988Z,11.20
2019-04-11T11:15:27.992Z,11.20
2019-04-11T11:19:16.769Z,11.10
2019-04-11T11:21:05.689Z,11.00
2019-04-11T11:24:05.385Z,10.70
2019-04-11T11:26:39.030Z,11.10
2019-04-11T11:29:47.631Z,11.40
2019-04-11T11:32:32.099Z,11.40
2019-04-11T11:35:37.577Z,11.30
2019-04-11T11:38:12.050Z,11.50
2019-04-11T11:41:05.907Z,11.50
2019-04-11T11:43:37.748Z,11.50
2019-04-11T11:46:46.629Z,11.60
2019-04-11T11:49:37.526Z,11.50
2019-04-11T11:52:15.165Z,11.60
2019-04-11T11:54:50.074Z,11.70
2019-04-11T11:57:30.869Z,12.00
2019-04-11T12:00:13.380Z,12.10
2019-04-11T12:02:55.509Z,12.00
2019-04-11T12:05:34.492Z,11.60
2019-04-11T12:08:20.343Z,11.40
2019-04-11T12:11:03.975Z,11.40
2019-04-11T12:13:53.729Z,11.70
2019-04-11T12:16:34.581Z,11.30
2019-04-11T12:19:24.851Z,11.70
2019-04-11T12:21:59.868Z,11.90
2019-04-11T12:24:34.736Z,11.90
2019-04-11T12:27:26.841Z,11.90
2019-04-11T12:30:21.019Z,11.60
2019-04-11T12:33:15.945Z,11.80
2019-04-11T12:36:07.280Z,12.00
2019-04-11T12:38:58.318Z,12.30
2019-04-11T12:41:49.019Z,12.00
2019-04-11T12:44:51.443Z,11.70
2019-04-11T12:47:28.604Z,11.80
2019-04-11T12:50:18.953Z,11.80
2019-04-11T12:53:21.571Z,12.10
2019-04-11T12:56:10.472Z,12.30
2019-04-11T12:59:12.737Z,12.10
2019-04-11T13:02:02.036Z,11.90
2019-04-11T13:04:39.904Z,11.30
2019-04-11T13:07:33.399Z,11.40
2019-04-11T13:10:32.190Z,11.70
2019-04-11T13:13:28.659Z,12.10
2019-04-11T13:16:12.238Z,12.20
2019-04-11T13:19:03.831Z,12.30
2019-04-11T13:21:55.561Z,12.10
2019-04-11T13:24:45.894Z,12.00
2019-04-11T13:27:21.831Z,12.20
2019-04-11T13:30:18.136Z,11.90
2019-04-11T13:32:54.524Z,11.70
2019-04-11T13:35:50.474Z,11.80
2019-04-11T13:38:31.713Z,12.10
2019-04-11T13:41:27.994Z,11.50
2019-04-11T13:44:34.687Z,11.60
2019-04-11T13:47:23.862Z,11.60
2019-04-11T13:49:57.696Z,11.70
2019-04-11T13:53:02.535Z,11.40
2019-04-11T13:55:36.516Z,11.80
2019-04-11T13:58:25.606Z,12.30
2019-04-11T14:01:00.865Z,12.10
2019-04-11T14:04:00.215Z,12.30
2019-04-11T14:06:42.061Z,12.20
2019-04-11T14:09:38.194Z,12.30
2019-04-11T14:12:14.753Z,12.10
2019-04-11T14:14:58.226Z,12.20
2019-04-11T14:17:48.450Z,12.10
2019-04-11T14:20:42.762Z,12.20
2019-04-11T14:23:35.278Z,12.10
2019-04-11T14:26:24.711Z,12.20
2019-04-11T14:29:00.051Z,12.10
2019-04-11T14:31:48.056Z,11.60
2019-04-11T14:34:57.589Z,11.90
2019-04-11T14:37:41.332Z,12.20
2019-04-11T14:40:19.979Z,12.20
2019-04-11T14:43:09.433Z,12.30
2019-04-11T14:46:07.504Z,12.30
2019-04-11T14:48:42.542Z,12.00
2019-04-11T14:51:28.210Z,12.00
2019-04-11T14:54:11.996Z,12.10
2019-04-11T14:56:52.176Z,12.10
2019-04-11T14:59:26.004Z,11.70
2019-04-11T15:02:05.076Z,11.80
2019-04-11T15:04:54.268Z,11.70
2019-04-11T15:07:25.778Z,12.10
2019-04-11T15:10:11.386Z,12.10
2019-04-11T15:12:45.733Z,12.00
2019-04-11T15:15:35.326Z,11.80
2019-04-11T15:18:06.813Z,11.70
2019-04-11T15:21:00.202Z,11.70
2019-04-11T15:23:38.971Z,11.60
2019-04-11T15:26:32.396Z,11.60
2019-04-11T15:29:18.832Z,11.70
2019-04-11T15:32:13.284Z,11.70
2019-04-11T15:34:54.966Z,11.60
2019-04-11T15:37:47.091Z,11.20
2019-04-11T15:40:43.321Z,11.00
2019-04-11T15:43:42.602Z,10.90
2019-04-11T15:46:24.234Z,10.90
2019-04-11T15:49:20.419Z,10.80
2019-04-11T15:52:00.784Z,10.70
2019-04-11T15:54:54.353Z,10.70
2019-04-11T15:57:43.034Z,10.90
2019-04-11T16:00:36.891Z,11.00
2019-04-11T16:03:10.262Z,10.60
2019-04-11T16:06:01.630Z,10.60
2019-04-11T16:08:43.428Z,10.90
2019-04-11T16:11:32.882Z,10.70
2019-04-11T16:14:06.793Z,10.70
2019-04-11T16:16:47.197Z,10.70
2019-04-11T16:19:37.491Z,10.70
2019-04-11T16:22:26.749Z,10.50
2019-04-11T16:25:00.158Z,10.50
2019-04-11T16:27:53.607Z,10.50
2019-04-11T16:30:25.289Z,10.20
2019-04-11T16:33:07.961Z,10.20
2019-04-11T16:35:48.817Z,10.20
2019-04-11T16:38:21.989Z,10.10
2019-04-11T16:41:11.022Z,10.00
2019-04-11T16:43:44.412Z,9.90
2019-04-11T16:46:50.216Z,9.70
2019-04-11T16:49:23.703Z,9.60
2019-04-11T16:51:55.779Z,9.60
2019-04-11T16:54:29.265Z,9.60
2019-04-11T16:57:01.040Z,9.40
2019-04-11T16:59:32.335Z,9.20
2019-04-11T17:02:05.289Z,9.20
2019-04-11T17:04:38.355Z,9.10
2019-04-11T17:07:37.617Z,9.00
2019-04-11T17:10:10.002Z,9.00
2019-04-11T17:12:41.429Z,8.90
2019-04-11T17:15:12.920Z,8.90
2019-04-11T17:17:45.917Z,8.90
2019-04-11T17:20:17.194Z,8.80
2019-04-11T17:22:48.843Z,8.80
2019-04-11T17:25:20.804Z,8.70
2019-04-11T17:27:53.281Z,8.60
2019-04-11T17:30:25.268Z,8.60
2019-04-11T17:32:56.680Z,8.60
2019-04-11T17:35:31.569Z,8.50
2019-04-11T17:38:04.068Z,8.50
2019-04-11T17:40:35.040Z,8.40
2019-04-11T17:43:07.496Z,8.40
2019-04-11T17:45:40.045Z,8.20
2019-04-11T17:48:12.757Z,8.20
2019-04-11T17:50:44.927Z,8.20
2019-04-11T17:53:16.573Z,8.20
2019-04-11T17:55:48.101Z,8.10
2019-04-11T17:58:19.453Z,8.00
2019-04-11T18:00:56.877Z,7.90
2019-04-11T18:03:28.909Z,7.90
2019-04-11T18:06:00.415Z,7.80
2019-04-11T18:08:31.790Z,7.70
2019-04-11T18:11:03.731Z,7.70
2019-04-11T18:13:36.851Z,7.60
2019-04-11T18:16:08.262Z,7.60
2019-04-11T18:18:39.608Z,7.50
2019-04-11T18:21:11.478Z,7.50
2019-04-11T18:23:43.005Z,7.40
2019-04-11T18:26:15.327Z,7.40
2019-04-11T18:28:46.679Z,7.30
2019-04-11T18:31:19.879Z,7.30
2019-04-11T18:33:52.481Z,7.20
2019-04-11T18:36:24.222Z,7.10
2019-04-11T18:38:55.552Z,7.10
2019-04-11T18:41:27.175Z,7.00
2019-04-11T18:43:58.845Z,7.00
2019-04-11T18:46:31.589Z,6.90
2019-04-11T18:49:03.225Z,6.80
2019-04-11T18:51:35.868Z,6.80
2019-04-11T18:54:07.841Z,6.80
2019-04-11T18:56:39.218Z,6.70
2019-04-11T18:59:11.920Z,6.70
2019-04-11T19:01:43.638Z,6.70
2019-04-11T19:04:15.173Z,6.60
2019-04-11T19:06:46.542Z,6.60
2019-04-11T19:09:17.991Z,6.60
2019-04-11T19:11:51.489Z,6.50
2019-04-11T19:14:24.761Z,6.50
2019-04-11T19:16:56.688Z,6.50
2019-04-11T19:19:28.750Z,6.50
2019-04-11T19:22:00.182Z,6.50
2019-04-11T19:24:35.625Z,6.50
2019-04-11T19:27:06.518Z,6.50
2019-04-11T19:29:38.960Z,6.50
2019-04-11T19:32:10.467Z,6.50
2019-04-11T19:34:41.919Z,6.50
2019-04-11T19:37:13.260Z,6.50
2019-04-11T19:39:45.342Z,6.50
2019-04-11T19:42:19.803Z,6.50
2019-04-11T19:44:51.491Z,6.50
2019-04-11T19:47:22.981Z,6.50
2019-04-11T19:49:54.244Z,6.40
2019-04-11T19:52:25.651Z,6.40
2019-04-11T19:54:58.483Z,6.40
2019-04-11T19:57:30.220Z,6.40
2019-04-11T20:00:01.968Z,6.40
2019-04-11T20:02:33.528Z,6.30
2019-04-11T20:05:04.981Z,6.30
2019-04-11T20:07:36.377Z,6.30
2019-04-11T20:10:08.179Z,6.30
2019-04-11T20:12:39.700Z,6.30
2019-04-11T20:15:11.401Z,6.20
2019-04-11T20:17:44.467Z,6.20
2019-04-11T20:20:17.840Z,6.20
2019-04-11T20:22:58.898Z,6.20
2019-04-11T20:25:23.805Z,6.20
2019-04-11T20:27:57.471Z,6.20
2019-04-11T20:30:30.733Z,6.10
2019-04-11T20:33:03.102Z,6.20
2019-04-11T20:35:35.203Z,6.10
2019-04-11T20:38:06.796Z,6.10
2019-04-11T20:40:38.179Z,6.10
2019-04-11T20:43:10.215Z,6.10
2019-04-11T20:45:42.437Z,6.00
2019-04-11T20:48:14.224Z,6.10
2019-04-11T20:50:46.233Z,6.00
2019-04-11T20:53:18.012Z,5.90
2019-04-11T20:55:49.815Z,5.90
2019-04-11T20:58:27.185Z,5.90
2019-04-11T21:00:56.033Z,5.80
2019-04-11T21:03:29.882Z,5.90
2019-04-11T21:06:01.714Z,5.80
2019-04-11T21:08:36.544Z,5.80
2019-04-11T21:11:06.984Z,5.90
2019-04-11T21:13:38.970Z,5.90
2019-04-11T21:16:10.741Z,5.90
2019-04-11T21:18:42.513Z,5.80
2019-04-11T21:21:15.243Z,5.80
2019-04-11T21:23:46.859Z,5.80
2019-04-11T21:26:19.381Z,5.80
2019-04-11T21:28:50.832Z,5.70
2019-04-11T21:31:22.321Z,5.70
2019-04-11T21:33:54.981Z,5.70
2019-04-11T21:36:27.031Z,5.70
2019-04-11T21:38:58.464Z,5.60
2019-04-11T21:41:29.770Z,5.60
2019-04-11T21:44:01.572Z,5.60
2019-04-11T21:46:38.076Z,5.60
2019-04-11T21:49:10.171Z,5.50
2019-04-11T21:51:42.570Z,5.40
2019-04-11T21:54:14.983Z,5.30
2019-04-11T21:56:49.694Z,5.30
2019-04-11T21:59:23.828Z,5.20
2019-04-11T22:01:55.137Z,5.10
2019-04-11T22:04:28.573Z,5.20
2019-04-11T22:07:01.501Z,5.10
2019-04-11T22:09:36.930Z,5.10
2019-04-11T22:12:09.044Z,5.10
2019-04-11T22:14:42.032Z,5.10
2019-04-11T22:17:15.935Z,5.00
2019-04-11T22:19:47.795Z,5.00
2019-04-11T22:22:19.262Z,5.00
2019-04-11T22:24:51.748Z,5.00
2019-04-11T22:27:23.470Z,4.90
2019-04-11T22:29:55.308Z,4.90
2019-04-11T22:32:27.433Z,4.90
2019-04-11T22:34:59.908Z,4.90
2019-04-11T22:37:33.494Z,4.80
2019-04-11T22:40:05.614Z,4.80
2019-04-11T22:42:37.377Z,4.80
2019-04-11T22:45:09.785Z,4.80
2019-04-11T22:47:41.035Z,4.80
2019-04-11T22:50:12.639Z,4.80
2019-04-11T22:52:44.611Z,4.80
2019-04-11T22:55:15.955Z,4.70
2019-04-11T22:57:48.401Z,4.80
2019-04-11T23:00:21.269Z,4.70
2019-04-11T23:03:06.653Z,4.70
2019-04-11T23:05:38.255Z,4.70
2019-04-11T23:08:10.606Z,4.80
2019-04-11T23:10:42.014Z,4.80
2019-04-11T23:13:15.678Z,4.70
2019-04-11T23:15:46.596Z,4.70
2019-04-11T23:18:17.850Z,4.60
2019-04-11T23:20:49.913Z,4.60
2019-04-11T23:23:21.537Z,4.60
2019-04-11T23:25:52.850Z,4.60
2019-04-11T23:28:24.363Z,4.50
2019-04-11T23:30:56.201Z,4.40
2019-04-11T23:33:27.757Z,4.50
2019-04-11T23:35:59.159Z,4.30
2019-04-11T23:38:30.969Z,4.20
2019-04-11T23:41:02.711Z,4.20
2019-04-11T23:43:35.070Z,4.10
2019-04-11T23:46:06.401Z,4.00
2019-04-11T23:48:38.170Z,4.00
2019-04-11T23:51:09.577Z,4.10
2019-04-11T23:53:40.858Z,4.10
2019-04-11T23:56:12.281Z,4.20
2019-04-11T23:58:45.821Z,4.30
